createdAt,value
2022-12-26T00:00:48.148Z,99621.19
2022-12-26T00:03:15.781Z,99610.94
2022-12-26T00:05:43.976Z,99624.06
2022-12-26T00:08:11.143Z,99625.84
2022-12-26T00:10:41.194Z,99628.47
2022-12-26T00:13:37.668Z,99627.59
2022-12-26T00:15:55.832Z,99621.44
2022-12-26T00:18:23.047Z,99624.00
2022-12-26T00:20:50.434Z,99621.41
2022-12-26T00:23:17.988Z,99624.75
2022-12-26T00:25:45.149Z,99624.00
2022-12-26T00:28:12.310Z,99622.25
2022-12-26T00:30:39.758Z,99616.16
2022-12-26T00:33:06.963Z,99613.44
2022-12-26T00:35:34.704Z,99610.91
2022-12-26T00:38:02.154Z,99611.00
2022-12-26T00:40:29.604Z,99610.84
2022-12-26T00:42:56.766Z,99617.91
2022-12-26T00:45:25.320Z,99617.97
2022-12-26T00:47:52.472Z,99625.78
2022-12-26T00:50:19.638Z,99624.03
2022-12-26T00:52:47.108Z,99624.97
2022-12-26T00:55:14.291Z,99622.25
2022-12-26T00:57:41.457Z,99629.28
2022-12-26T01:00:09.234Z,99627.47
2022-12-26T01:02:39.817Z,99622.31
2022-12-26T01:05:08.259Z,99616.16
2022-12-26T01:08:21.794Z,99616.19
2022-12-26T01:10:23.832Z,99626.59
2022-12-26T01:12:51.464Z,99616.09
2022-12-26T01:15:20.136Z,99610.78
2022-12-26T01:17:47.333Z,99612.63
2022-12-26T01:20:14.865Z,99610.91
2022-12-26T01:22:42.028Z,99609.22
2022-12-26T01:25:10.336Z,99607.41
2022-12-26T01:27:37.907Z,99607.53
2022-12-26T01:30:05.404Z,99611.03
2022-12-26T01:32:32.620Z,99610.03
2022-12-26T01:35:00.240Z,99596.00
2022-12-26T01:37:27.392Z,99596.16
2022-12-26T01:39:55.700Z,99585.66
2022-12-26T01:42:24.676Z,99588.28
2022-12-26T01:45:07.336Z,99586.62
2022-12-26T01:47:47.179Z,99585.75
2022-12-26T01:50:28.013Z,99573.50
2022-12-26T01:52:56.245Z,99577.00
2022-12-26T01:55:23.436Z,99585.69
2022-12-26T01:57:56.474Z,99583.06
2022-12-26T02:00:23.960Z,99564.78
2022-12-26T02:03:09.887Z,99575.22
2022-12-26T02:05:37.616Z,99567.47
2022-12-26T02:08:15.055Z,99577.88
2022-12-26T02:10:50.237Z,99578.78
2022-12-26T02:13:17.831Z,99570.97
2022-12-26T02:15:45.509Z,99570.97
2022-12-26T02:18:12.680Z,99571.81
2022-12-26T02:20:41.787Z,99570.94
2022-12-26T02:23:18.472Z,99566.59
2022-12-26T02:26:04.157Z,99567.47
2022-12-26T02:28:31.574Z,99560.50
2022-12-26T02:31:17.692Z,99568.34
2022-12-26T02:33:48.324Z,99569.22
2022-12-26T02:36:15.470Z,99558.75
2022-12-26T02:38:51.829Z,99556.12
2022-12-26T02:41:26.800Z,99562.25
2022-12-26T02:44:58.771Z,99557.91
2022-12-26T02:47:41.456Z,99540.47
2022-12-26T02:50:30.466Z,99530.88
2022-12-26T02:53:23.060Z,99540.47
2022-12-26T02:56:09.549Z,99566.56
2022-12-26T02:58:58.922Z,99563.09
2022-12-26T03:01:52.327Z,99550.03
2022-12-26T03:04:39.149Z,99544.50
2022-12-26T03:07:27.082Z,99522.19
2022-12-26T03:10:13.258Z,99532.59
2022-12-26T03:13:00.840Z,99523.09
2022-12-26T03:15:29.415Z,99530.88
2022-12-26T03:18:01.694Z,99522.19
2022-12-26T03:20:38.387Z,99530.91
2022-12-26T03:23:06.979Z,99520.41
2022-12-26T03:25:56.306Z,99526.56
2022-12-26T03:28:23.519Z,99525.69
2022-12-26T03:30:51.961Z,99525.66
2022-12-26T03:33:40.875Z,99531.78
2022-12-26T03:36:11.680Z,99531.75
2022-12-26T03:38:51.269Z,99545.66
2022-12-26T03:41:40.360Z,99549.16
2022-12-26T03:44:35.468Z,99539.59
2022-12-26T03:47:21.551Z,99539.59
2022-12-26T03:50:08.742Z,99545.72
2022-12-26T03:52:58.191Z,99543.94
2022-12-26T03:55:50.914Z,99548.16
2022-12-26T03:58:37.171Z,99565.41
2022-12-26T04:01:24.749Z,99564.84
2022-12-26T04:04:11.149Z,99565.34
2022-12-26T04:07:09.853Z,99561.16
2022-12-26T04:10:01.671Z,99554.09
2022-12-26T04:12:49.533Z,99584.31
2022-12-26T04:15:43.904Z,99563.62
2022-12-26T04:18:31.866Z,99553.41
2022-12-26T04:21:06.472Z,99563.69
2022-12-26T04:23:58.661Z,99567.22
2022-12-26T04:26:56.163Z,99577.62
2022-12-26T04:29:42.135Z,99573.31
2022-12-26T04:32:52.849Z,99561.19
2022-12-26T04:35:38.892Z,99557.66
2022-12-26T04:38:25.140Z,99552.56
2022-12-26T04:41:13.652Z,99550.75
2022-12-26T04:43:59.940Z,99562.91
2022-12-26T04:46:27.260Z,99562.00
2022-12-26T04:49:13.381Z,99569.97
2022-12-26T04:51:40.634Z,99549.91
2022-12-26T04:54:08.078Z,99550.81
2022-12-26T04:56:35.325Z,99546.50
2022-12-26T04:59:02.597Z,99549.13
2022-12-26T05:01:50.844Z,99555.25
2022-12-26T05:04:37.099Z,99555.88
2022-12-26T05:07:24.975Z,99548.03
2022-12-26T05:09:52.775Z,99550.84
2022-12-26T05:12:20.468Z,99554.19
2022-12-26T05:14:47.617Z,99542.91
2022-12-26T05:17:33.512Z,99554.31
2022-12-26T05:20:19.712Z,99556.97
2022-12-26T05:23:05.488Z,99555.19
2022-12-26T05:25:52.853Z,99542.16
2022-12-26T05:28:39.121Z,99541.19
2022-12-26T05:31:07.234Z,99543.87
2022-12-26T05:33:52.820Z,99546.47
2022-12-26T05:36:20.748Z,99544.66
2022-12-26T05:38:48.390Z,99542.13
2022-12-26T05:41:15.819Z,99542.16
2022-12-26T05:43:43.304Z,99540.41
2022-12-26T05:46:10.605Z,99539.53
2022-12-26T05:48:37.807Z,99536.09
2022-12-26T05:51:05.470Z,99535.25
2022-12-26T05:53:32.766Z,99528.25
2022-12-26T05:56:04.715Z,99539.56
2022-12-26T05:58:32.482Z,99541.34
2022-12-26T06:01:04.554Z,99546.53
2022-12-26T06:03:32.305Z,99549.97
2022-12-26T06:05:59.612Z,99547.41
2022-12-26T06:08:26.770Z,99548.28
2022-12-26T06:10:54.307Z,99546.56
2022-12-26T06:13:21.464Z,99536.97
2022-12-26T06:15:48.752Z,99545.69
2022-12-26T06:18:16.290Z,99536.09
2022-12-26T06:20:43.474Z,99544.78
2022-12-26T06:23:10.637Z,99534.38
2022-12-26T06:25:38.097Z,99525.53
2022-12-26T06:28:05.260Z,99530.00
2022-12-26T06:30:32.482Z,99530.00
2022-12-26T06:32:59.951Z,99522.94
2022-12-26T06:35:27.090Z,99526.41
2022-12-26T06:37:54.270Z,99522.16
2022-12-26T06:40:21.757Z,99530.84
2022-12-26T06:42:48.948Z,99528.22
2022-12-26T06:45:16.356Z,99524.75
2022-12-26T06:47:43.812Z,99529.97
2022-12-26T06:50:10.987Z,99523.03
2022-12-26T06:52:38.158Z,99529.97
2022-12-26T06:55:05.775Z,99530.88
2022-12-26T06:57:33.000Z,99529.97
2022-12-26T07:00:00.191Z,99529.06
2022-12-26T07:02:31.019Z,99521.19
2022-12-26T07:04:58.260Z,99521.22
2022-12-26T07:07:25.440Z,99522.16
2022-12-26T07:09:53.024Z,99527.31
2022-12-26T07:12:22.002Z,99531.62
2022-12-26T07:14:49.201Z,99535.97
2022-12-26T07:17:16.638Z,99553.19
2022-12-26T07:19:43.796Z,99551.44
2022-12-26T07:22:10.986Z,99554.06
2022-12-26T07:24:38.462Z,99555.81
2022-12-26T07:27:05.673Z,99556.69
2022-12-26T07:29:32.841Z,99562.00
2022-12-26T07:32:00.376Z,99562.16
2022-12-26T07:34:31.576Z,99562.12
2022-12-26T07:37:00.311Z,99567.37
2022-12-26T07:39:27.528Z,99563.94
2022-12-26T07:41:57.467Z,99567.41
2022-12-26T07:44:27.794Z,99564.81
2022-12-26T07:46:55.149Z,99564.81
2022-12-26T07:49:22.522Z,99558.72
2022-12-26T07:51:51.209Z,99566.56
2022-12-26T07:54:18.665Z,99574.37
2022-12-26T07:56:45.818Z,99577.00
2022-12-26T07:59:14.149Z,99578.78
2022-12-26T08:01:42.096Z,99593.59
2022-12-26T08:04:10.480Z,99588.34
2022-12-26T08:06:38.725Z,99587.50
2022-12-26T08:09:06.000Z,99582.25
2022-12-26T08:11:34.496Z,99584.03
2022-12-26T08:14:02.071Z,99568.34
2022-12-26T08:16:29.368Z,99581.41
2022-12-26T08:18:56.828Z,99571.84
2022-12-26T08:21:24.135Z,99579.63
2022-12-26T08:23:51.379Z,99583.16
2022-12-26T08:26:22.771Z,99584.88
2022-12-26T08:28:50.875Z,99591.84
2022-12-26T08:31:18.906Z,99591.84
2022-12-26T08:33:46.685Z,99598.81
2022-12-26T08:36:16.981Z,99590.09
2022-12-26T08:38:45.814Z,99590.09
2022-12-26T08:41:13.288Z,99596.50
2022-12-26T08:46:27.950Z,99607.94
2022-12-26T08:48:55.156Z,99604.84
2022-12-26T08:51:24.061Z,99603.84
2022-12-26T08:53:51.838Z,99587.41
2022-12-26T08:56:20.818Z,99594.44
2022-12-26T08:58:48.143Z,99591.59
2022-12-26T09:01:19.728Z,99598.78
2022-12-26T09:03:47.164Z,99596.22
2022-12-26T09:06:14.824Z,99603.19
2022-12-26T09:08:42.497Z,99608.41
2022-12-26T09:11:11.063Z,99605.81
2022-12-26T09:13:38.699Z,99607.53
2022-12-26T09:16:07.484Z,99608.41
2022-12-26T09:18:35.256Z,99625.81
2022-12-26T09:21:03.057Z,99618.00
2022-12-26T09:23:30.801Z,99616.22
2022-12-26T09:26:28.487Z,99616.16
2022-12-26T09:28:56.038Z,99612.69
2022-12-26T09:31:24.347Z,99620.59
2022-12-26T09:33:53.436Z,99623.22
2022-12-26T09:36:21.813Z,99629.25
2022-12-26T09:38:49.084Z,99624.06
2022-12-26T09:41:19.344Z,99620.44
2022-12-26T09:43:50.332Z,99619.72
2022-12-26T09:46:36.655Z,99625.78
2022-12-26T09:49:06.756Z,99620.53
2022-12-26T09:51:33.963Z,99623.12
2022-12-26T09:54:01.689Z,99624.06
2022-12-26T09:59:18.140Z,99618.81
2022-12-26T10:01:59.064Z,99624.09
2022-12-26T10:04:30.561Z,99615.38
2022-12-26T10:06:57.992Z,99607.50
2022-12-26T10:09:30.914Z,99600.44
2022-12-26T10:12:20.217Z,99606.50
2022-12-26T10:14:55.213Z,99610.16
2022-12-26T10:17:31.399Z,99598.78
2022-12-26T10:20:04.596Z,99603.88
2022-12-26T10:22:50.669Z,99596.09
2022-12-26T10:25:19.054Z,99597.00
2022-12-26T10:27:47.445Z,99594.41
2022-12-26T10:30:16.609Z,99591.78
2022-12-26T10:32:44.570Z,99584.88
2022-12-26T10:35:31.093Z,99578.66
2022-12-26T10:37:59.760Z,99569.81
2022-12-26T10:40:30.054Z,99575.25
2022-12-26T10:42:58.010Z,99569.19
2022-12-26T10:45:31.330Z,99562.81
2022-12-26T10:47:58.757Z,99569.13
2022-12-26T10:50:28.046Z,99570.97
2022-12-26T10:52:55.590Z,99553.53
2022-12-26T10:55:35.281Z,99571.84
2022-12-26T10:58:05.736Z,99562.22
2022-12-26T11:00:33.228Z,99550.03
2022-12-26T11:03:05.599Z,99550.06
2022-12-26T11:08:43.944Z,99534.34
2022-12-26T11:11:14.849Z,99526.44
2022-12-26T11:13:53.772Z,99525.62
2022-12-26T11:16:35.176Z,99522.13
2022-12-26T11:19:02.481Z,99511.50
2022-12-26T11:21:30.299Z,99510.81
2022-12-26T11:24:09.649Z,99511.41
2022-12-26T11:26:37.585Z,99511.47
2022-12-26T11:29:11.260Z,99507.19
2022-12-26T11:31:43.352Z,99513.19
2022-12-26T11:34:11.559Z,99513.00
2022-12-26T11:36:49.575Z,99523.00
2022-12-26T11:39:21.974Z,99525.28
2022-12-26T11:41:49.988Z,99523.28
2022-12-26T11:44:28.059Z,99523.28
2022-12-26T11:47:08.708Z,99515.53
2022-12-26T11:49:38.950Z,99516.31
2022-12-26T11:52:25.037Z,99516.91
2022-12-26T11:55:00.956Z,99508.78
2022-12-26T11:57:30.079Z,99513.59
2022-12-26T12:00:14.533Z,99507.94
2022-12-26T12:02:42.095Z,99512.16
2022-12-26T12:05:13.735Z,99512.25
2022-12-26T12:07:47.905Z,99506.09
2022-12-26T12:10:18.280Z,99513.34
2022-12-26T12:12:54.126Z,99515.34
2022-12-26T12:15:31.816Z,99507.06
2022-12-26T12:18:02.532Z,99506.91
2022-12-26T12:20:59.513Z,99492.75
2022-12-26T12:23:39.667Z,99496.25
2022-12-26T12:26:07.100Z,99500.47
2022-12-26T12:28:34.278Z,99504.19
2022-12-26T12:31:01.656Z,99487.16
2022-12-26T12:33:32.608Z,99491.03
2022-12-26T12:36:02.577Z,99493.22
2022-12-26T12:38:35.800Z,99497.31
2022-12-26T12:41:21.623Z,99502.09
2022-12-26T12:43:55.043Z,99505.22
2022-12-26T12:46:28.100Z,99505.00
2022-12-26T12:49:02.380Z,99500.94
2022-12-26T12:51:47.734Z,99495.84
2022-12-26T12:54:15.135Z,99480.72
2022-12-26T12:56:47.121Z,99473.16
2022-12-26T12:59:26.873Z,99483.97
2022-12-26T13:01:56.148Z,99487.00
2022-12-26T13:04:27.568Z,99481.28
2022-12-26T13:07:02.905Z,99473.19
2022-12-26T13:09:56.621Z,99469.69
2022-12-26T13:12:27.832Z,99466.09
2022-12-26T13:14:59.755Z,99477.22
2022-12-26T13:17:32.475Z,99473.50
2022-12-26T13:20:02.631Z,99464.41
2022-12-26T13:22:59.465Z,99472.34
2022-12-26T13:25:27.456Z,99481.00
2022-12-26T13:27:55.215Z,99480.00
2022-12-26T13:30:29.234Z,99472.38
2022-12-26T13:32:56.940Z,99472.41
2022-12-26T13:35:43.131Z,99477.66
2022-12-26T13:38:10.575Z,99485.28
2022-12-26T13:40:37.724Z,99484.09
2022-12-26T13:43:50.111Z,99475.28
2022-12-26T13:46:56.250Z,99482.91
2022-12-26T13:49:39.752Z,99474.78
2022-12-26T13:52:14.872Z,99474.56
2022-12-26T13:54:48.134Z,99482.59
2022-12-26T13:57:28.120Z,99485.94
2022-12-26T14:00:04.745Z,99484.97
2022-12-26T14:05:44.850Z,99483.94
2022-12-26T14:08:25.470Z,99482.84
2022-12-26T14:11:08.355Z,99491.53
2022-12-26T14:13:54.309Z,99492.84
2022-12-26T14:16:37.189Z,99488.41
2022-12-26T14:19:04.342Z,99491.09
2022-12-26T14:21:40.587Z,99496.34
2022-12-26T14:24:10.801Z,99480.16
2022-12-26T14:26:39.779Z,99487.69
2022-12-26T14:29:16.069Z,99493.69
2022-12-26T14:31:48.304Z,99496.91
2022-12-26T14:34:34.384Z,99503.78
2022-12-26T14:37:20.500Z,99506.13
2022-12-26T14:40:07.918Z,99498.09
2022-12-26T14:43:13.950Z,99497.25
2022-12-26T14:45:48.908Z,99501.72
2022-12-26T14:48:16.396Z,99507.06
2022-12-26T14:50:55.113Z,99513.41
2022-12-26T14:53:28.273Z,99513.66
2022-12-26T14:55:58.379Z,99509.03
2022-12-26T14:58:28.883Z,99503.53
2022-12-26T15:00:56.703Z,99498.28
2022-12-26T15:03:27.363Z,99492.13
2022-12-26T15:05:54.832Z,99490.78
2022-12-26T15:08:31.283Z,99495.16
2022-12-26T15:11:08.570Z,99481.00
2022-12-26T15:13:41.877Z,99487.25
2022-12-26T15:16:15.918Z,99492.00
2022-12-26T15:18:49.447Z,99486.56
2022-12-26T15:21:19.616Z,99482.13
2022-12-26T15:24:05.855Z,99481.25
2022-12-26T15:26:42.415Z,99476.91
2022-12-26T15:29:14.553Z,99488.34
2022-12-26T15:31:44.587Z,99478.03
2022-12-26T15:34:11.743Z,99477.00
2022-12-26T15:37:14.585Z,99470.00
2022-12-26T15:39:53.930Z,99476.06
2022-12-26T15:42:21.079Z,99473.78
2022-12-26T15:44:48.499Z,99471.91
2022-12-26T15:47:19.268Z,99472.72
2022-12-26T15:50:05.214Z,99481.47
2022-12-26T15:52:36.768Z,99479.72
2022-12-26T15:55:08.353Z,99482.34
2022-12-26T15:57:38.141Z,99481.41
2022-12-26T16:00:20.249Z,99477.19
2022-12-26T16:02:47.799Z,99478.09
2022-12-26T16:05:22.875Z,99478.88
2022-12-26T16:07:55.044Z,99483.34
2022-12-26T16:10:25.317Z,99475.44
2022-12-26T16:13:25.188Z,99472.91
2022-12-26T16:16:01.426Z,99465.00
2022-12-26T16:18:30.841Z,99469.34
2022-12-26T16:21:23.534Z,99473.75
2022-12-26T16:23:51.634Z,99469.69
2022-12-26T16:26:27.396Z,99470.50
2022-12-26T16:28:55.297Z,99466.00
2022-12-26T16:31:26.778Z,99464.31
2022-12-26T16:33:54.369Z,99462.66
2022-12-26T16:36:22.764Z,99452.31
2022-12-26T16:38:50.932Z,99458.38
2022-12-26T16:41:22.176Z,99460.06
2022-12-26T16:43:52.878Z,99463.53
2022-12-26T16:46:22.679Z,99461.78
2022-12-26T16:48:53.838Z,99457.50
2022-12-26T16:51:47.020Z,99457.50
2022-12-26T16:54:23.070Z,99458.25
2022-12-26T16:56:51.186Z,99463.62
2022-12-26T16:59:18.822Z,99455.06
2022-12-26T17:01:48.151Z,99456.72
2022-12-26T17:04:17.189Z,99458.41
2022-12-26T17:06:49.533Z,99455.78
2022-12-26T17:09:17.449Z,99448.81
2022-12-26T17:12:04.930Z,99452.34
2022-12-26T17:14:33.595Z,99444.50
2022-12-26T17:17:03.226Z,99444.50
2022-12-26T17:19:34.475Z,99444.47
2022-12-26T17:22:14.224Z,99444.41
2022-12-26T17:24:41.995Z,99446.25
2022-12-26T17:27:16.967Z,99437.56
2022-12-26T17:29:47.986Z,99441.00
2022-12-26T17:32:21.533Z,99440.25
2022-12-26T17:34:48.784Z,99436.66
2022-12-26T17:37:25.271Z,99434.88
2022-12-26T17:39:55.717Z,99446.28
2022-12-26T17:42:25.501Z,99444.53
2022-12-26T17:44:52.955Z,99455.06
2022-12-26T17:47:28.409Z,99443.75
2022-12-26T17:49:56.592Z,99443.69
2022-12-26T17:52:26.280Z,99442.84
2022-12-26T17:54:53.641Z,99443.69
2022-12-26T17:57:25.658Z,99433.25
2022-12-26T17:59:53.245Z,99428.00
2022-12-26T18:02:21.005Z,99432.53
2022-12-26T18:04:49.193Z,99425.59
2022-12-26T18:07:27.140Z,99417.66
2022-12-26T18:09:58.073Z,99427.28
2022-12-26T18:12:25.720Z,99432.56
2022-12-26T18:14:59.306Z,99429.06
2022-12-26T18:17:29.272Z,99426.47
2022-12-26T18:19:57.735Z,99415.97
2022-12-26T18:22:25.270Z,99410.75
2022-12-26T18:24:56.245Z,99413.44
2022-12-26T18:27:31.184Z,99399.53
2022-12-26T18:30:00.054Z,99392.53
2022-12-26T18:32:28.607Z,99393.38
2022-12-26T18:34:56.424Z,99398.56
2022-12-26T18:37:24.554Z,99399.53
2022-12-26T18:39:52.035Z,99402.12
2022-12-26T18:42:20.428Z,99387.31
2022-12-26T18:44:48.020Z,99389.91
2022-12-26T18:47:16.293Z,99402.97
2022-12-26T18:49:44.194Z,99406.47
2022-12-26T18:52:12.242Z,99405.56
2022-12-26T18:54:45.802Z,99396.00
2022-12-26T18:57:17.154Z,99389.88
2022-12-26T18:59:44.789Z,99387.22
2022-12-26T19:02:15.294Z,99384.66
2022-12-26T19:04:44.620Z,99379.47
2022-12-26T19:07:12.987Z,99379.41
2022-12-26T19:09:47.417Z,99387.28
2022-12-26T19:12:31.741Z,99386.41
2022-12-26T19:15:06.040Z,99383.84
2022-12-26T19:17:33.569Z,99399.44
2022-12-26T19:20:01.368Z,99400.34
2022-12-26T19:22:29.164Z,99396.88
2022-12-26T19:24:56.987Z,99391.63
2022-12-26T19:27:24.236Z,99386.38
2022-12-26T19:29:51.416Z,99373.28
2022-12-26T19:32:19.396Z,99374.16
2022-12-26T19:34:47.048Z,99374.13
2022-12-26T19:37:14.675Z,99377.56
2022-12-26T19:39:42.287Z,99393.28
2022-12-26T19:42:09.590Z,99397.56
2022-12-26T19:44:36.751Z,99388.97
2022-12-26T19:47:11.788Z,99387.22
2022-12-26T19:49:40.209Z,99391.63
2022-12-26T19:52:07.936Z,99394.25
2022-12-26T19:54:35.958Z,99393.38
2022-12-26T19:57:03.549Z,99388.97
2022-12-26T19:59:31.607Z,99385.56
2022-12-26T20:01:58.938Z,99384.66
2022-12-26T20:04:26.864Z,99396.84
2022-12-26T20:06:54.569Z,99402.06
2022-12-26T20:09:22.230Z,99406.41
2022-12-26T20:11:49.918Z,99423.81
2022-12-26T20:14:18.641Z,99453.44
2022-12-26T20:17:06.636Z,99448.22
2022-12-26T20:19:38.960Z,99444.75
2022-12-26T20:22:06.409Z,99447.34
2022-12-26T20:24:34.040Z,99449.97
2022-12-26T20:27:02.379Z,99439.53
2022-12-26T20:29:29.964Z,99431.66
2022-12-26T20:31:57.698Z,99438.59
2022-12-26T20:34:25.445Z,99427.28
2022-12-26T20:36:53.472Z,99422.94
2022-12-26T20:39:21.177Z,99421.13
2022-12-26T20:41:50.959Z,99415.13
2022-12-26T20:44:18.542Z,99422.06
2022-12-26T20:46:46.301Z,99415.91
2022-12-26T20:49:14.477Z,99396.91
2022-12-26T20:51:42.671Z,99395.03
2022-12-26T20:54:10.969Z,99403.81
2022-12-26T20:56:41.221Z,99401.25
2022-12-26T20:59:08.696Z,99400.34
2022-12-26T21:01:37.615Z,99393.38
2022-12-26T21:04:05.507Z,99396.78
2022-12-26T21:06:34.922Z,99391.63
2022-12-26T21:09:02.837Z,99394.22
2022-12-26T21:11:32.180Z,99392.44
2022-12-26T21:14:02.097Z,99388.94
2022-12-26T21:16:34.416Z,99393.28
2022-12-26T21:19:02.452Z,99431.69
2022-12-26T21:21:31.291Z,99428.16
2022-12-26T21:24:03.024Z,99429.84
2022-12-26T21:26:30.590Z,99429.87
2022-12-26T21:28:58.482Z,99422.03
2022-12-26T21:31:26.451Z,99434.28
2022-12-26T21:33:57.683Z,99438.66
2022-12-26T21:36:26.420Z,99424.63
2022-12-26T21:38:54.025Z,99424.59
2022-12-26T21:41:21.305Z,99420.25
2022-12-26T21:43:49.159Z,99417.59
2022-12-26T21:46:17.553Z,99410.66
2022-12-26T21:48:47.408Z,99426.44
2022-12-26T21:51:15.473Z,99421.16
2022-12-26T21:53:43.115Z,99409.81
2022-12-26T21:56:10.984Z,99415.88
2022-12-26T21:58:56.921Z,99416.88
2022-12-26T22:01:25.082Z,99413.38
2022-12-26T22:04:11.259Z,99423.72
2022-12-26T22:06:38.958Z,99434.12
2022-12-26T22:09:06.607Z,99418.47
2022-12-26T22:11:52.210Z,99424.44
2022-12-26T22:14:19.721Z,99421.75
2022-12-26T22:16:46.886Z,99424.44
2022-12-26T22:19:14.065Z,99424.50
2022-12-26T22:21:44.424Z,99422.63
2022-12-26T22:24:11.666Z,99420.03
2022-12-26T22:26:38.857Z,99420.97
2022-12-26T22:29:06.342Z,99421.87
2022-12-26T22:31:34.420Z,99418.31
2022-12-26T22:34:07.845Z,99420.91
2022-12-26T22:36:36.126Z,99421.69
2022-12-26T22:39:03.442Z,99428.78
2022-12-26T22:41:31.239Z,99411.28
2022-12-26T22:43:58.700Z,99396.34
2022-12-26T22:46:33.921Z,99405.28
2022-12-26T22:49:02.338Z,99406.16
2022-12-26T22:51:29.531Z,99410.59
2022-12-26T22:53:57.316Z,99410.41
2022-12-26T22:56:24.953Z,99407.78
2022-12-26T22:58:53.051Z,99405.03
2022-12-26T23:01:20.613Z,99416.41
2022-12-26T23:03:48.284Z,99426.03
2022-12-26T23:06:21.667Z,99422.56
2022-12-26T23:08:49.743Z,99435.47
2022-12-26T23:11:18.112Z,99444.44
2022-12-26T23:13:45.431Z,99449.78
2022-12-26T23:16:24.620Z,99462.03
2022-12-26T23:19:11.470Z,99465.50
2022-12-26T23:21:40.154Z,99470.56
2022-12-26T23:24:07.546Z,99459.50
2022-12-26T23:26:34.858Z,99460.34
2022-12-26T23:29:21.232Z,99455.97
2022-12-26T23:31:49.080Z,99460.31
2022-12-26T23:34:16.587Z,99457.72
2022-12-26T23:36:43.775Z,99453.41
2022-12-26T23:39:12.055Z,99425.56
2022-12-26T23:41:40.511Z,99449.94
2022-12-26T23:44:07.710Z,99458.66
2022-12-26T23:46:35.007Z,99461.22
2022-12-26T23:49:02.632Z,99456.00
2022-12-26T23:51:29.798Z,99456.03
2022-12-26T23:53:56.992Z,99464.75
2022-12-26T23:56:27.717Z,99471.69
2022-12-26T23:58:55.161Z,99466.47
